sensor_id;sensor_type;location;lat;lon;timestamp;pressure;altitude;pressure_sealevel;temperature;humidity
9462;BME280;4769;42.660;23.262;2023-05-22T00:00:35;93757.75;;;15.73;93.44
9462;BME280;4769;42.660;23.262;2023-05-22T00:03:01;93753.19;;;15.78;93.55
9462;BME280;4769;42.660;23.262;2023-05-22T00:05:30;93750.06;;;15.71;94.01
9462;BME280;4769;42.660;23.262;2023-05-22T00:07:55;93754.94;;;15.64;94.99
9462;BME280;4769;42.660;23.262;2023-05-22T00:10:21;93749.06;;;15.34;96.93
9462;BME280;4769;42.660;23.262;2023-05-22T00:12:47;93752.31;;;15.21;98.44
9462;BME280;4769;42.660;23.262;2023-05-22T00:15:13;93753.16;;;15.16;99.66
9462;BME280;4769;42.660;23.262;2023-05-22T00:17:39;93738.03;;;15.12;99.32
9462;BME280;4769;42.660;23.262;2023-05-22T00:20:06;93747.19;;;15.34;99.01
9462;BME280;4769;42.660;23.262;2023-05-22T00:22:35;93757.50;;;15.41;98.53
9462;BME280;4769;42.660;23.262;2023-05-22T00:25:01;93753.50;;;15.43;98.43
9462;BME280;4769;42.660;23.262;2023-05-22T00:27:27;93741.72;;;15.54;97.32
9462;BME280;4769;42.660;23.262;2023-05-22T00:29:53;93756.56;;;15.60;96.95
9462;BME280;4769;42.660;23.262;2023-05-22T00:32:18;93757.81;;;15.68;96.76
9462;BME280;4769;42.660;23.262;2023-05-22T00:34:44;93755.59;;;15.80;96.13
9462;BME280;4769;42.660;23.262;2023-05-22T00:37:10;93757.44;;;15.79;96.78
9462;BME280;4769;42.660;23.262;2023-05-22T00:39:38;93748.16;;;15.77;96.71
9462;BME280;4769;42.660;23.262;2023-05-22T00:42:04;93749.78;;;15.73;96.94
9462;BME280;4769;42.660;23.262;2023-05-22T00:44:30;93751.13;;;15.70;96.77
9462;BME280;4769;42.660;23.262;2023-05-22T00:46:56;93765.19;;;15.76;96.75
9462;BME280;4769;42.660;23.262;2023-05-22T00:49:22;93759.66;;;15.72;96.53
9462;BME280;4769;42.660;23.262;2023-05-22T00:51:47;93766.00;;;15.71;96.67
9462;BME280;4769;42.660;23.262;2023-05-22T00:54:14;93760.25;;;15.64;96.89
9462;BME280;4769;42.660;23.262;2023-05-22T00:56:44;93756.31;;;15.57;96.81
9462;BME280;4769;42.660;23.262;2023-05-22T00:59:10;93764.06;;;15.53;97.27
9462;BME280;4769;42.660;23.262;2023-05-22T01:01:36;93760.91;;;15.46;97.91
9462;BME280;4769;42.660;23.262;2023-05-22T01:04:03;93753.56;;;15.33;98.68
9462;BME280;4769;42.660;23.262;2023-05-22T01:06:29;93757.50;;;15.41;98.54
9462;BME280;4769;42.660;23.262;2023-05-22T01:08:55;93750.16;;;15.28;99.40
9462;BME280;4769;42.660;23.262;2023-05-22T01:11:24;93750.38;;;15.36;98.71
9462;BME280;4769;42.660;23.262;2023-05-22T01:13:59;93746.41;;;15.34;98.53
9462;BME280;4769;42.660;23.262;2023-05-22T01:16:33;93762.41;;;15.24;99.61
9462;BME280;4769;42.660;23.262;2023-05-22T01:19:11;93753.66;;;15.18;99.74
9462;BME280;4769;42.660;23.262;2023-05-22T01:21:47;93759.47;;;15.25;99.53
9462;BME280;4769;42.660;23.262;2023-05-22T01:24:44;93755.16;;;15.29;99.24
9462;BME280;4769;42.660;23.262;2023-05-22T01:33:27;93754.44;;;15.24;99.98
9462;BME280;4769;42.660;23.262;2023-05-22T01:35:58;93751.97;;;15.32;99.78
9462;BME280;4769;42.660;23.262;2023-05-22T01:38:26;93746.16;;;15.35;99.63
9462;BME280;4769;42.660;23.262;2023-05-22T01:40:53;93742.13;;;15.38;99.12
9462;BME280;4769;42.660;23.262;2023-05-22T01:43:19;93743.56;;;15.20;99.97
9462;BME280;4769;42.660;23.262;2023-05-22T01:45:45;93742.19;;;15.28;99.61
9462;BME280;4769;42.660;23.262;2023-05-22T01:48:11;93742.69;;;15.35;99.28
9462;BME280;4769;42.660;23.262;2023-05-22T01:50:44;93737.66;;;15.28;99.20
9462;BME280;4769;42.660;23.262;2023-05-22T01:53:18;93745.84;;;15.32;99.38
9462;BME280;4769;42.660;23.262;2023-05-22T01:55:49;93749.34;;;15.27;99.75
9462;BME280;4769;42.660;23.262;2023-05-22T01:58:26;93748.59;;;15.22;99.87
9462;BME280;4769;42.660;23.262;2023-05-22T02:00:55;93744.53;;;15.29;99.32
9462;BME280;4769;42.660;23.262;2023-05-22T02:03:27;93745.66;;;15.23;99.35
9462;BME280;4769;42.660;23.262;2023-05-22T02:06:02;93742.19;;;15.23;99.24
9462;BME280;4769;42.660;23.262;2023-05-22T02:08:30;93735.09;;;15.18;99.49
9462;BME280;4769;42.660;23.262;2023-05-22T02:10:56;93743.09;;;15.13;99.78
9462;BME280;4769;42.660;23.262;2023-05-22T02:13:24;93744.69;;;15.09;100.00
9462;BME280;4769;42.660;23.262;2023-05-22T02:15:50;93741.28;;;15.04;100.00
9462;BME280;4769;42.660;23.262;2023-05-22T02:18:16;93749.53;;;15.02;100.00
9462;BME280;4769;42.660;23.262;2023-05-22T02:20:42;93749.50;;;15.07;100.00
9462;BME280;4769;42.660;23.262;2023-05-22T02:23:13;93737.41;;;14.86;100.00
9462;BME280;4769;42.660;23.262;2023-05-22T02:25:39;93736.63;;;14.91;100.00
9462;BME280;4769;42.660;23.262;2023-05-22T02:28:05;93744.50;;;15.01;100.00
9462;BME280;4769;42.660;23.262;2023-05-22T02:30:31;93745.03;;;14.98;100.00
9462;BME280;4769;42.660;23.262;2023-05-22T02:32:57;93734.97;;;14.95;100.00
9462;BME280;4769;42.660;23.262;2023-05-22T02:35:23;93742.66;;;14.96;100.00
9462;BME280;4769;42.660;23.262;2023-05-22T02:37:49;93739.19;;;15.01;100.00
9462;BME280;4769;42.660;23.262;2023-05-22T02:40:17;93746.91;;;15.02;100.00
9462;BME280;4769;42.660;23.262;2023-05-22T02:42:43;93745.84;;;14.98;100.00
9462;BME280;4769;42.660;23.262;2023-05-22T02:45:09;93735.50;;;14.97;100.00
9462;BME280;4769;42.660;23.262;2023-05-22T02:47:35;93735.75;;;15.00;100.00
9462;BME280;4769;42.660;23.262;2023-05-22T02:50:01;93728.66;;;14.91;100.00
9462;BME280;4769;42.660;23.262;2023-05-22T02:52:29;93742.94;;;15.00;100.00
9462;BME280;4769;42.660;23.262;2023-05-22T02:54:55;93738.63;;;15.04;99.52
9462;BME280;4769;42.660;23.262;2023-05-22T02:57:25;93730.16;;;15.02;99.57
9462;BME280;4769;42.660;23.262;2023-05-22T02:59:50;93725.16;;;14.95;99.74
9462;BME280;4769;42.660;23.262;2023-05-22T03:02:17;93727.00;;;14.95;99.87
9462;BME280;4769;42.660;23.262;2023-05-22T03:04:43;93718.31;;;14.89;99.43
9462;BME280;4769;42.660;23.262;2023-05-22T03:07:09;93718.47;;;14.59;100.00
9462;BME280;4769;42.660;23.262;2023-05-22T03:09:35;93736.56;;;14.52;100.00
9462;BME280;4769;42.660;23.262;2023-05-22T03:12:00;93738.66;;;14.60;100.00
9462;BME280;4769;42.660;23.262;2023-05-22T03:14:30;93742.25;;;14.26;100.00
9462;BME280;4769;42.660;23.262;2023-05-22T03:16:56;93736.31;;;14.49;100.00
9462;BME280;4769;42.660;23.262;2023-05-22T03:19:22;93733.19;;;14.37;100.00
9462;BME280;4769;42.660;23.262;2023-05-22T03:21:48;93741.38;;;14.40;100.00
9462;BME280;4769;42.660;23.262;2023-05-22T03:24:14;93740.81;;;14.48;100.00
9462;BME280;4769;42.660;23.262;2023-05-22T03:26:40;93735.41;;;14.68;100.00
9462;BME280;4769;42.660;23.262;2023-05-22T03:29:06;93739.59;;;14.79;100.00
9462;BME280;4769;42.660;23.262;2023-05-22T03:31:35;93745.22;;;14.73;100.00
9462;BME280;4769;42.660;23.262;2023-05-22T03:34:01;93729.31;;;14.68;100.00
9462;BME280;4769;42.660;23.262;2023-05-22T03:36:27;93740.13;;;14.76;100.00
9462;BME280;4769;42.660;23.262;2023-05-22T03:38:52;93741.88;;;14.96;100.00
9462;BME280;4769;42.660;23.262;2023-05-22T03:41:18;93747.19;;;14.96;100.00
9462;BME280;4769;42.660;23.262;2023-05-22T03:43:44;93741.53;;;15.07;100.00
9462;BME280;4769;42.660;23.262;2023-05-22T03:46:10;93741.78;;;15.11;100.00
9462;BME280;4769;42.660;23.262;2023-05-22T03:48:41;93742.97;;;15.28;99.45
9462;BME280;4769;42.660;23.262;2023-05-22T03:51:07;93739.50;;;14.94;100.00
9462;BME280;4769;42.660;23.262;2023-05-22T03:53:33;93750.09;;;14.99;100.00
9462;BME280;4769;42.660;23.262;2023-05-22T03:55:59;93738.84;;;14.74;100.00
9462;BME280;4769;42.660;23.262;2023-05-22T03:58:25;93730.69;;;14.60;100.00
9462;BME280;4769;42.660;23.262;2023-05-22T04:00:51;93733.28;;;14.70;100.00
9462;BME280;4769;42.660;23.262;2023-05-22T04:03:17;93747.16;;;15.01;100.00
9462;BME280;4769;42.660;23.262;2023-05-22T04:05:46;93750.94;;;14.90;100.00
9462;BME280;4769;42.660;23.262;2023-05-22T04:08:12;93743.91;;;14.70;100.00
9462;BME280;4769;42.660;23.262;2023-05-22T04:10:37;93741.66;;;14.87;100.00
9462;BME280;4769;42.660;23.262;2023-05-22T04:13:03;93744.81;;;14.94;100.00
9462;BME280;4769;42.660;23.262;2023-05-22T04:15:29;93749.25;;;15.04;100.00
9462;BME280;4769;42.660;23.262;2023-05-22T04:17:57;93758.88;;;15.33;100.00
9462;BME280;4769;42.660;23.262;2023-05-22T04:20:23;93750.22;;;15.18;100.00
9462;BME280;4769;42.660;23.262;2023-05-22T04:22:51;93756.41;;;15.08;100.00
9462;BME280;4769;42.660;23.262;2023-05-22T04:25:17;93754.66;;;15.27;100.00
9462;BME280;4769;42.660;23.262;2023-05-22T04:27:43;93745.06;;;15.31;100.00
9462;BME280;4769;42.660;23.262;2023-05-22T04:30:09;93754.31;;;15.44;100.00
9462;BME280;4769;42.660;23.262;2023-05-22T04:32:35;93748.22;;;15.33;100.00
9462;BME280;4769;42.660;23.262;2023-05-22T04:35:01;93744.78;;;15.38;100.00
9462;BME280;4769;42.660;23.262;2023-05-22T04:37:26;93757.75;;;15.44;100.00
9462;BME280;4769;42.660;23.262;2023-05-22T04:39:55;93759.75;;;15.57;99.17
9462;BME280;4769;42.660;23.262;2023-05-22T04:42:21;93761.78;;;15.70;98.99
9462;BME280;4769;42.660;23.262;2023-05-22T04:44:47;93765.72;;;15.73;98.45
9462;BME280;4769;42.660;23.262;2023-05-22T04:47:12;93761.41;;;15.82;98.42
9462;BME280;4769;42.660;23.262;2023-05-22T04:49:38;93757.91;;;15.86;98.40
9462;BME280;4769;42.660;23.262;2023-05-22T04:52:05;93765.34;;;16.13;96.77
9462;BME280;4769;42.660;23.262;2023-05-22T04:54:30;93758.06;;;16.23;95.35
9462;BME280;4769;42.660;23.262;2023-05-22T04:56:59;93760.81;;;16.37;94.05
9462;BME280;4769;42.660;23.262;2023-05-22T04:59:25;93764.28;;;16.37;92.99
9462;BME280;4769;42.660;23.262;2023-05-22T05:01:50;93764.22;;;16.19;94.18
9462;BME280;4769;42.660;23.262;2023-05-22T05:04:16;93773.44;;;16.26;93.00
9462;BME280;4769;42.660;23.262;2023-05-22T05:06:45;93769.56;;;16.42;91.61
9462;BME280;4769;42.660;23.262;2023-05-22T05:09:11;93764.06;;;16.57;90.82
9462;BME280;4769;42.660;23.262;2023-05-22T05:11:36;93764.16;;;16.71;90.03
9462;BME280;4769;42.660;23.262;2023-05-22T05:14:05;93757.78;;;16.90;89.38
9462;BME280;4769;42.660;23.262;2023-05-22T05:16:31;93766.41;;;17.19;89.31
9462;BME280;4769;42.660;23.262;2023-05-22T05:18:57;93771.09;;;17.27;90.24
9462;BME280;4769;42.660;23.262;2023-05-22T05:21:22;93774.41;;;17.38;86.55
9462;BME280;4769;42.660;23.262;2023-05-22T05:23:48;93773.06;;;17.40;85.91
9462;BME280;4769;42.660;23.262;2023-05-22T05:26:14;93771.09;;;17.46;85.55
9462;BME280;4769;42.660;23.262;2023-05-22T05:28:39;93763.34;;;17.49;85.37
9462;BME280;4769;42.660;23.262;2023-05-22T05:31:08;93758.84;;;17.63;84.66
9462;BME280;4769;42.660;23.262;2023-05-22T05:33:34;93770.50;;;17.67;84.62
9462;BME280;4769;42.660;23.262;2023-05-22T05:35:59;93764.19;;;17.77;84.08
9462;BME280;4769;42.660;23.262;2023-05-22T05:38:25;93769.59;;;18.04;83.35
9462;BME280;4769;42.660;23.262;2023-05-22T05:40:51;93776.13;;;18.11;81.84
9462;BME280;4769;42.660;23.262;2023-05-22T05:43:17;93776.22;;;18.20;82.02
9462;BME280;4769;42.660;23.262;2023-05-22T05:45:42;93774.31;;;18.39;81.41
9462;BME280;4769;42.660;23.262;2023-05-22T05:48:11;93764.75;;;18.51;80.75
9462;BME280;4769;42.660;23.262;2023-05-22T05:50:36;93777.78;;;18.66;79.13
9462;BME280;4769;42.660;23.262;2023-05-22T05:53:02;93769.84;;;18.75;77.85
9462;BME280;4769;42.660;23.262;2023-05-22T05:55:28;93777.56;;;18.76;76.11
9462;BME280;4769;42.660;23.262;2023-05-22T05:57:56;93777.56;;;18.76;75.47
9462;BME280;4769;42.660;23.262;2023-05-22T06:00:22;93781.00;;;19.04;75.10
9462;BME280;4769;42.660;23.262;2023-05-22T06:02:48;93782.06;;;19.16;74.24
9462;BME280;4769;42.660;23.262;2023-05-22T06:05:16;93772.44;;;19.15;74.61
9462;BME280;4769;42.660;23.262;2023-05-22T06:07:42;93784.09;;;19.46;73.84
9462;BME280;4769;42.660;23.262;2023-05-22T06:10:10;93773.19;;;19.65;73.82
9462;BME280;4769;42.660;23.262;2023-05-22T06:12:36;93769.38;;;19.79;72.70
9462;BME280;4769;42.660;23.262;2023-05-22T06:15:02;93771.69;;;19.94;70.84
9462;BME280;4769;42.660;23.262;2023-05-22T06:17:28;93777.06;;;19.72;71.39
9462;BME280;4769;42.660;23.262;2023-05-22T06:19:53;93772.53;;;19.81;71.25
9462;BME280;4769;42.660;23.262;2023-05-22T06:22:23;93778.88;;;19.63;70.14
9462;BME280;4769;42.660;23.262;2023-05-22T06:24:48;93777.31;;;19.13;72.13
9462;BME280;4769;42.660;23.262;2023-05-22T06:27:14;93776.41;;;19.18;71.86
9462;BME280;4769;42.660;23.262;2023-05-22T06:29:40;93778.47;;;19.34;71.19
9462;BME280;4769;42.660;23.262;2023-05-22T06:32:06;93774.72;;;19.57;69.99
9462;BME280;4769;42.660;23.262;2023-05-22T06:34:32;93773.13;;;19.21;69.37
9462;BME280;4769;42.660;23.262;2023-05-22T06:36:58;93772.69;;;19.05;69.62
9462;BME280;4769;42.660;23.262;2023-05-22T06:39:26;93773.44;;;19.33;68.12
9462;BME280;4769;42.660;23.262;2023-05-22T06:41:52;93776.59;;;19.35;67.63
9462;BME280;4769;42.660;23.262;2023-05-22T06:44:17;93784.16;;;19.55;67.16
9462;BME280;4769;42.660;23.262;2023-05-22T06:46:43;93772.91;;;19.66;66.73
9462;BME280;4769;42.660;23.262;2023-05-22T06:49:09;93768.09;;;19.77;67.26
9462;BME280;4769;42.660;23.262;2023-05-22T06:51:35;93772.66;;;19.98;64.66
9462;BME280;4769;42.660;23.262;2023-05-22T06:54:00;93778.63;;;20.17;64.67
9462;BME280;4769;42.660;23.262;2023-05-22T06:56:29;93777.19;;;20.50;64.38
9462;BME280;4769;42.660;23.262;2023-05-22T06:58:54;93777.13;;;20.33;61.10
9462;BME280;4769;42.660;23.262;2023-05-22T07:01:20;93779.38;;;20.40;61.67
9462;BME280;4769;42.660;23.262;2023-05-22T07:03:46;93786.88;;;20.29;60.96
9462;BME280;4769;42.660;23.262;2023-05-22T07:06:12;93773.66;;;20.33;61.16
9462;BME280;4769;42.660;23.262;2023-05-22T07:08:37;93776.56;;;20.45;61.79
9462;BME280;4769;42.660;23.262;2023-05-22T07:11:03;93785.47;;;20.71;61.47
9462;BME280;4769;42.660;23.262;2023-05-22T07:13:31;93767.28;;;20.90;60.67
9462;BME280;4769;42.660;23.262;2023-05-22T07:15:57;93764.78;;;21.02;57.88
9462;BME280;4769;42.660;23.262;2023-05-22T07:18:23;93763.94;;;20.84;57.73
9462;BME280;4769;42.660;23.262;2023-05-22T07:20:48;93757.63;;;20.80;57.69
9462;BME280;4769;42.660;23.262;2023-05-22T07:23:14;93764.53;;;20.73;58.50
9462;BME280;4769;42.660;23.262;2023-05-22T07:25:41;93765.25;;;20.95;59.07
9462;BME280;4769;42.660;23.262;2023-05-22T07:28:07;93765.13;;;21.34;59.26
9462;BME280;4769;42.660;23.262;2023-05-22T07:30:36;93770.19;;;21.61;57.69
9462;BME280;4769;42.660;23.262;2023-05-22T07:33:02;93763.41;;;21.55;58.40
9462;BME280;4769;42.660;23.262;2023-05-22T07:35:28;93769.59;;;21.73;57.52
9462;BME280;4769;42.660;23.262;2023-05-22T07:37:53;93754.59;;;21.89;57.78
9462;BME280;4769;42.660;23.262;2023-05-22T07:40:19;93756.94;;;21.99;57.28
9462;BME280;4769;42.660;23.262;2023-05-22T07:42:45;93753.00;;;21.79;56.19
9462;BME280;4769;42.660;23.262;2023-05-22T07:45:10;93753.34;;;21.86;55.79
9462;BME280;4769;42.660;23.262;2023-05-22T07:47:39;93754.41;;;21.85;55.85
9462;BME280;4769;42.660;23.262;2023-05-22T07:50:06;93760.72;;;21.98;56.17
9462;BME280;4769;42.660;23.262;2023-05-22T07:52:32;93767.47;;;22.12;55.67
9462;BME280;4769;42.660;23.262;2023-05-22T07:54:59;93751.97;;;22.26;55.35
9462;BME280;4769;42.660;23.262;2023-05-22T07:57:24;93754.91;;;22.42;54.47
9462;BME280;4769;42.660;23.262;2023-05-22T07:59:50;93757.81;;;22.74;53.16
9462;BME280;4769;42.660;23.262;2023-05-22T08:02:16;93759.81;;;23.15;52.79
9462;BME280;4769;42.660;23.262;2023-05-22T08:04:44;93758.78;;;22.70;52.31
9462;BME280;4769;42.660;23.262;2023-05-22T08:07:10;93752.13;;;23.34;50.17
9462;BME280;4769;42.660;23.262;2023-05-22T08:09:36;93764.97;;;23.69;48.85
9462;BME280;4769;42.660;23.262;2023-05-22T08:12:01;93762.88;;;23.96;48.10
9462;BME280;4769;42.660;23.262;2023-05-22T08:14:27;93761.59;;;24.14;46.76
9462;BME280;4769;42.660;23.262;2023-05-22T08:16:53;93756.53;;;24.57;46.58
9462;BME280;4769;42.660;23.262;2023-05-22T08:19:19;93738.69;;;25.00;43.84
9462;BME280;4769;42.660;23.262;2023-05-22T08:21:47;93753.66;;;24.62;44.45
9462;BME280;4769;42.660;23.262;2023-05-22T08:24:13;93749.63;;;25.04;43.57
9462;BME280;4769;42.660;23.262;2023-05-22T08:26:39;93749.59;;;25.79;42.48
9462;BME280;4769;42.660;23.262;2023-05-22T08:29:04;93744.25;;;26.07;42.35
9462;BME280;4769;42.660;23.262;2023-05-22T08:31:30;93744.28;;;26.38;40.44
9462;BME280;4769;42.660;23.262;2023-05-22T08:33:56;93741.06;;;26.05;41.75
9462;BME280;4769;42.660;23.262;2023-05-22T08:36:22;93742.50;;;26.14;40.28
9462;BME280;4769;42.660;23.262;2023-05-22T08:38:50;93750.38;;;26.78;39.41
9462;BME280;4769;42.660;23.262;2023-05-22T08:41:16;93746.09;;;26.77;38.92
9462;BME280;4769;42.660;23.262;2023-05-22T08:43:42;93749.94;;;26.33;36.62
9462;BME280;4769;42.660;23.262;2023-05-22T08:46:08;93743.91;;;26.67;37.37
9462;BME280;4769;42.660;23.262;2023-05-22T08:48:36;93744.28;;;26.96;36.28
9462;BME280;4769;42.660;23.262;2023-05-22T08:51:04;93745.31;;;26.92;37.69
9462;BME280;4769;42.660;23.262;2023-05-22T08:53:32;93744.09;;;26.74;38.05
9462;BME280;4769;42.660;23.262;2023-05-22T08:56:01;93734.50;;;26.18;37.54
9462;BME280;4769;42.660;23.262;2023-05-22T08:58:29;93727.75;;;25.45;38.50
9462;BME280;4769;42.660;23.262;2023-05-22T09:00:56;93730.75;;;25.67;38.28
9462;BME280;4769;42.660;23.262;2023-05-22T09:03:25;93729.59;;;26.08;36.65
9462;BME280;4769;42.660;23.262;2023-05-22T09:05:51;93732.31;;;26.82;35.75
9462;BME280;4769;42.660;23.262;2023-05-22T09:08:17;93724.59;;;27.15;34.67
9462;BME280;4769;42.660;23.262;2023-05-22T09:10:44;93728.22;;;26.57;35.21
9462;BME280;4769;42.660;23.262;2023-05-22T09:13:23;93723.50;;;26.11;33.40
9462;BME280;4769;42.660;23.262;2023-05-22T09:15:49;93731.72;;;25.35;34.46
9462;BME280;4769;42.660;23.262;2023-05-22T09:18:15;93723.06;;;25.69;34.48
9462;BME280;4769;42.660;23.262;2023-05-22T09:20:41;93721.00;;;25.78;35.14
9462;BME280;4769;42.660;23.262;2023-05-22T09:23:10;93720.16;;;26.45;34.33
9462;BME280;4769;42.660;23.262;2023-05-22T09:25:36;93719.47;;;26.48;33.86
9462;BME280;4769;42.660;23.262;2023-05-22T09:28:03;93718.66;;;26.94;33.32
9462;BME280;4769;42.660;23.262;2023-05-22T09:30:33;93724.25;;;27.01;32.92
9462;BME280;4769;42.660;23.262;2023-05-22T09:32:59;93720.66;;;27.12;32.87
9462;BME280;4769;42.660;23.262;2023-05-22T09:35:25;93719.66;;;27.01;30.51
9462;BME280;4769;42.660;23.262;2023-05-22T09:37:51;93719.25;;;26.25;32.13
9462;BME280;4769;42.660;23.262;2023-05-22T09:40:17;93724.81;;;26.60;32.67
9462;BME280;4769;42.660;23.262;2023-05-22T09:42:43;93726.44;;;26.95;31.77
9462;BME280;4769;42.660;23.262;2023-05-22T09:45:10;93720.94;;;26.92;32.08
9462;BME280;4769;42.660;23.262;2023-05-22T09:47:38;93725.25;;;26.62;31.49
9462;BME280;4769;42.660;23.262;2023-05-22T09:50:06;93736.84;;;26.62;32.67
9462;BME280;4769;42.660;23.262;2023-05-22T09:52:34;93730.53;;;26.43;33.07
9462;BME280;4769;42.660;23.262;2023-05-22T09:55:02;93722.38;;;26.12;34.07
9462;BME280;4769;42.660;23.262;2023-05-22T09:57:29;93724.31;;;25.72;33.26
9462;BME280;4769;42.660;23.262;2023-05-22T09:59:55;93728.88;;;25.44;34.96
9462;BME280;4769;42.660;23.262;2023-05-22T10:02:23;93720.84;;;24.96;35.64
9462;BME280;4769;42.660;23.262;2023-05-22T10:04:53;93739.09;;;24.42;37.34
9462;BME280;4769;42.660;23.262;2023-05-22T10:07:21;93741.28;;;24.16;39.11
9462;BME280;4769;42.660;23.262;2023-05-22T10:09:50;93732.97;;;24.09;40.18
9462;BME280;4769;42.660;23.262;2023-05-22T10:12:20;93736.44;;;24.10;41.06
9462;BME280;4769;42.660;23.262;2023-05-22T10:14:48;93727.59;;;24.21;41.83
9462;BME280;4769;42.660;23.262;2023-05-22T10:17:14;93733.53;;;24.15;42.38
9462;BME280;4769;42.660;23.262;2023-05-22T10:19:40;93743.44;;;23.90;43.92
9462;BME280;4769;42.660;23.262;2023-05-22T10:22:10;93737.25;;;23.69;44.89
9462;BME280;4769;42.660;23.262;2023-05-22T10:24:38;93751.03;;;23.88;44.96
9462;BME280;4769;42.660;23.262;2023-05-22T10:27:05;93739.75;;;23.74;44.39
9462;BME280;4769;42.660;23.262;2023-05-22T10:29:37;93731.97;;;23.19;44.90
9462;BME280;4769;42.660;23.262;2023-05-22T10:32:11;93737.66;;;23.38;44.80
9462;BME280;4769;42.660;23.262;2023-05-22T10:34:48;93742.88;;;23.14;44.93
9462;BME280;4769;42.660;23.262;2023-05-22T10:37:29;93734.22;;;22.80;46.52
9462;BME280;4769;42.660;23.262;2023-05-22T10:40:01;93732.31;;;22.51;48.02
9462;BME280;4769;42.660;23.262;2023-05-22T10:42:29;93742.19;;;22.22;49.31
9462;BME280;4769;42.660;23.262;2023-05-22T10:44:55;93751.56;;;21.99;51.60
9462;BME280;4769;42.660;23.262;2023-05-22T10:47:21;93775.25;;;21.54;57.27
9462;BME280;4769;42.660;23.262;2023-05-22T10:49:47;93782.34;;;20.38;69.30
9462;BME280;4769;42.660;23.262;2023-05-22T10:52:13;93762.44;;;20.00;73.03
9462;BME280;4769;42.660;23.262;2023-05-22T10:54:44;93768.13;;;20.07;75.18
9462;BME280;4769;42.660;23.262;2023-05-22T10:57:13;93773.75;;;19.97;77.83
9462;BME280;4769;42.660;23.262;2023-05-22T10:59:39;93755.59;;;20.08;78.15
9462;BME280;4769;42.660;23.262;2023-05-22T11:02:12;93764.63;;;19.98;83.09
9462;BME280;4769;42.660;23.262;2023-05-22T11:04:43;93763.72;;;20.03;78.85
9462;BME280;4769;42.660;23.262;2023-05-22T11:07:09;93763.44;;;19.82;77.50
9462;BME280;4769;42.660;23.262;2023-05-22T11:09:43;93760.09;;;20.07;75.47
9462;BME280;4769;42.660;23.262;2023-05-22T11:12:14;93759.56;;;20.49;73.31
9462;BME280;4769;42.660;23.262;2023-05-22T11:14:40;93752.72;;;20.82;69.95
9462;BME280;4769;42.660;23.262;2023-05-22T11:17:06;93741.44;;;21.02;67.56
9462;BME280;4769;42.660;23.262;2023-05-22T11:19:32;93745.75;;;21.29;65.36
9462;BME280;4769;42.660;23.262;2023-05-22T11:21:59;93739.88;;;21.95;63.30
9462;BME280;4769;42.660;23.262;2023-05-22T11:24:25;93734.72;;;22.27;60.83
9462;BME280;4769;42.660;23.262;2023-05-22T11:27:05;93736.88;;;23.09;63.40
9462;BME280;4769;42.660;23.262;2023-05-22T11:29:31;93730.75;;;23.91;60.95
9462;BME280;4769;42.660;23.262;2023-05-22T11:31:57;93734.22;;;24.24;60.00
9462;BME280;4769;42.660;23.262;2023-05-22T11:34:23;93746.00;;;24.19;58.50
9462;BME280;4769;42.660;23.262;2023-05-22T11:36:51;93738.97;;;23.73;63.57
9462;BME280;4769;42.660;23.262;2023-05-22T11:39:17;93762.28;;;22.99;65.29
9462;BME280;4769;42.660;23.262;2023-05-22T11:41:42;93787.59;;;21.72;70.88
9462;BME280;4769;42.660;23.262;2023-05-22T11:44:11;93799.78;;;20.05;77.29
9462;BME280;4769;42.660;23.262;2023-05-22T11:46:37;93795.09;;;19.45;80.01
9462;BME280;4769;42.660;23.262;2023-05-22T11:49:03;93793.44;;;18.27;84.80
9462;BME280;4769;42.660;23.262;2023-05-22T11:51:29;93796.66;;;18.70;86.51
9462;BME280;4769;42.660;23.262;2023-05-22T11:53:56;93797.38;;;18.75;87.60
9462;BME280;4769;42.660;23.262;2023-05-22T11:56:22;93795.00;;;18.74;85.84
9462;BME280;4769;42.660;23.262;2023-05-22T11:58:48;93799.63;;;18.68;85.91
9462;BME280;4769;42.660;23.262;2023-05-22T12:01:17;93797.06;;;18.90;85.58
9462;BME280;4769;42.660;23.262;2023-05-22T12:03:42;93794.56;;;19.07;85.59
9462;BME280;4769;42.660;23.262;2023-05-22T12:06:08;93797.50;;;19.33;85.91
9462;BME280;4769;42.660;23.262;2023-05-22T12:08:34;93784.56;;;19.26;84.13
9462;BME280;4769;42.660;23.262;2023-05-22T12:11:03;93783.97;;;19.02;80.72
9462;BME280;4769;42.660;23.262;2023-05-22T12:13:30;93782.84;;;19.17;78.77
9462;BME280;4769;42.660;23.262;2023-05-22T12:15:58;93772.81;;;19.36;78.76
9462;BME280;4769;42.660;23.262;2023-05-22T12:18:27;93781.78;;;19.53;78.56
9462;BME280;4769;42.660;23.262;2023-05-22T12:20:54;93776.53;;;19.48;77.89
9462;BME280;4769;42.660;23.262;2023-05-22T12:23:21;93775.25;;;19.24;79.62
9462;BME280;4769;42.660;23.262;2023-05-22T12:25:46;93771.69;;;19.50;78.95
9462;BME280;4769;42.660;23.262;2023-05-22T12:28:12;93762.97;;;19.58;81.23
9462;BME280;4769;42.660;23.262;2023-05-22T12:30:39;93756.53;;;19.10;77.59
9462;BME280;4769;42.660;23.262;2023-05-22T12:33:11;93758.28;;;18.66;78.78
9462;BME280;4769;42.660;23.262;2023-05-22T12:35:40;93766.63;;;19.00;78.33
9462;BME280;4769;42.660;23.262;2023-05-22T12:38:06;93764.44;;;19.15;78.35
9462;BME280;4769;42.660;23.262;2023-05-22T12:40:32;93762.44;;;19.56;79.35
9462;BME280;4769;42.660;23.262;2023-05-22T12:42:57;93751.59;;;20.05;79.53
9462;BME280;4769;42.660;23.262;2023-05-22T12:45:23;93763.22;;;20.62;80.17
9462;BME280;4769;42.660;23.262;2023-05-22T12:47:49;93752.97;;;21.03;82.76
9462;BME280;4769;42.660;23.262;2023-05-22T12:50:15;93750.63;;;21.18;81.23
9462;BME280;4769;42.660;23.262;2023-05-22T12:52:43;93758.53;;;21.40;75.87
9462;BME280;4769;42.660;23.262;2023-05-22T12:55:09;93745.72;;;21.97;73.57
9462;BME280;4769;42.660;23.262;2023-05-22T12:57:35;93757.97;;;22.78;70.77
9462;BME280;4769;42.660;23.262;2023-05-22T13:00:01;93750.16;;;23.63;67.18
9462;BME280;4769;42.660;23.262;2023-05-22T13:02:27;93741.84;;;24.22;63.84
9462;BME280;4769;42.660;23.262;2023-05-22T13:04:53;93747.03;;;24.83;61.40
9462;BME280;4769;42.660;23.262;2023-05-22T13:07:19;93746.34;;;24.98;59.41
9462;BME280;4769;42.660;23.262;2023-05-22T13:09:47;93740.16;;;24.98;58.52
9462;BME280;4769;42.660;23.262;2023-05-22T13:12:13;93741.28;;;25.33;57.09
9462;BME280;4769;42.660;23.262;2023-05-22T13:14:39;93724.69;;;25.86;55.78